sensor_id;sensor_type;location;lat;lon;timestamp;pressure;altitude;pressure_sealevel;temperature;humidity
29379;BME280;16362;47.202;15.258;2023-02-28T00:00:38;96942.25;;;-1.37;81.88
29379;BME280;16362;47.202;15.258;2023-02-28T00:03:05;96940.91;;;-1.44;82.52
29379;BME280;16362;47.202;15.258;2023-02-28T00:05:33;96941.16;;;-1.49;82.43
29379;BME280;16362;47.202;15.258;2023-02-28T00:08:00;96941.31;;;-1.52;83.17
29379;BME280;16362;47.202;15.258;2023-02-28T00:10:28;96935.56;;;-1.59;82.96
29379;BME280;16362;47.202;15.258;2023-02-28T00:13:02;96941.81;;;-1.61;83.22
29379;BME280;16362;47.202;15.258;2023-02-28T00:15:30;96941.31;;;-1.68;83.41
29379;BME280;16362;47.202;15.258;2023-02-28T00:17:57;96942.41;;;-1.72;83.79
29379;BME280;16362;47.202;15.258;2023-02-28T00:20:24;96951.59;;;-1.81;84.22
29379;BME280;16362;47.202;15.258;2023-02-28T00:22:52;96951.69;;;-1.82;84.07
29379;BME280;16362;47.202;15.258;2023-02-28T00:25:22;96945.84;;;-1.88;84.43
29379;BME280;16362;47.202;15.258;2023-02-28T00:27:50;96956.53;;;-1.92;84.59
29379;BME280;16362;47.202;15.258;2023-02-28T00:30:22;96955.69;;;-1.93;85.46
29379;BME280;16362;47.202;15.258;2023-02-28T00:32:50;96956.88;;;-1.98;85.98
29379;BME280;16362;47.202;15.258;2023-02-28T00:35:17;96958.88;;;-2.04;86.47
29379;BME280;16362;47.202;15.258;2023-02-28T00:37:44;96954.47;;;-2.03;85.91
29379;BME280;16362;47.202;15.258;2023-02-28T00:40:11;96954.47;;;-2.03;85.65
29379;BME280;16362;47.202;15.258;2023-02-28T00:42:39;96952.63;;;-2.01;85.94
29379;BME280;16362;47.202;15.258;2023-02-28T00:45:07;96952.34;;;-1.95;85.46
29379;BME280;16362;47.202;15.258;2023-02-28T00:47:35;96955.00;;;-1.96;85.58
29379;BME280;16362;47.202;15.258;2023-02-28T00:50:02;96955.88;;;-1.96;85.86
29379;BME280;16362;47.202;15.258;2023-02-28T00:52:29;96957.63;;;-1.96;85.81
29379;BME280;16362;47.202;15.258;2023-02-28T00:54:56;96963.63;;;-1.94;86.28
29379;BME280;16362;47.202;15.258;2023-02-28T00:57:23;96959.22;;;-1.94;86.81
29379;BME280;16362;47.202;15.258;2023-02-28T00:59:49;96958.56;;;-1.97;86.90
29379;BME280;16362;47.202;15.258;2023-02-28T01:02:16;96955.88;;;-1.96;87.00
29379;BME280;16362;47.202;15.258;2023-02-28T01:04:44;96955.88;;;-1.96;86.96
29379;BME280;16362;47.202;15.258;2023-02-28T01:07:11;96964.47;;;-1.94;87.31
29379;BME280;16362;47.202;15.258;2023-02-28T01:09:38;96959.09;;;-1.91;88.01
29379;BME280;16362;47.202;15.258;2023-02-28T01:12:04;96958.31;;;-1.93;88.10
29379;BME280;16362;47.202;15.258;2023-02-28T01:14:32;96960.84;;;-1.91;87.97
29379;BME280;16362;47.202;15.258;2023-02-28T01:16:59;96952.81;;;-1.88;88.32
29379;BME280;16362;47.202;15.258;2023-02-28T01:19:26;96955.38;;;-1.87;88.38
29379;BME280;16362;47.202;15.258;2023-02-28T01:21:52;96947.44;;;-1.85;88.11
29379;BME280;16362;47.202;15.258;2023-02-28T01:24:19;96948.13;;;-1.81;87.15
29379;BME280;16362;47.202;15.258;2023-02-28T01:26:46;96949.50;;;-1.74;86.78
29379;BME280;16362;47.202;15.258;2023-02-28T01:29:12;96949.41;;;-1.73;86.96
29379;BME280;16362;47.202;15.258;2023-02-28T01:34:18;96942.31;;;-1.71;86.24
29379;BME280;16362;47.202;15.258;2023-02-28T01:39:19;96950.09;;;-1.69;86.80
29379;BME280;16362;47.202;15.258;2023-02-28T01:41:46;96938.03;;;-1.72;87.06
29379;BME280;16362;47.202;15.258;2023-02-28T01:47:21;96944.94;;;-1.71;85.95
29379;BME280;16362;47.202;15.258;2023-02-28T01:49:49;96940.56;;;-1.70;86.87
29379;BME280;16362;47.202;15.258;2023-02-28T01:52:18;96941.00;;;-1.62;86.06
29379;BME280;16362;47.202;15.258;2023-02-28T01:54:54;96941.06;;;-1.63;85.56
29379;BME280;16362;47.202;15.258;2023-02-28T01:57:29;96940.22;;;-1.64;85.81
29379;BME280;16362;47.202;15.258;2023-02-28T02:00:00;96934.22;;;-1.66;86.89
29379;BME280;16362;47.202;15.258;2023-02-28T02:02:31;96939.47;;;-1.66;86.28
29379;BME280;16362;47.202;15.258;2023-02-28T02:05:05;96933.44;;;-1.68;86.45
29379;BME280;16362;47.202;15.258;2023-02-28T02:07:33;96939.63;;;-1.69;87.34
29379;BME280;16362;47.202;15.258;2023-02-28T02:15:26;96940.56;;;-1.70;87.04
29379;BME280;16362;47.202;15.258;2023-02-28T02:17:59;96944.09;;;-1.71;87.15
29379;BME280;16362;47.202;15.258;2023-02-28T02:37:42;96936.59;;;-1.61;86.04
29379;BME280;16362;47.202;15.258;2023-02-28T02:40:18;96927.91;;;-1.62;86.19
29379;BME280;16362;47.202;15.258;2023-02-28T02:43:00;96933.13;;;-1.62;86.35
29379;BME280;16362;47.202;15.258;2023-02-28T02:48:12;96930.44;;;-1.60;86.95
29379;BME280;16362;47.202;15.258;2023-02-28T02:50:43;96924.38;;;-1.61;86.67
29379;BME280;16362;47.202;15.258;2023-02-28T02:53:14;96932.03;;;-1.58;86.23
29379;BME280;16362;47.202;15.258;2023-02-28T02:55:45;96930.16;;;-1.56;85.64
29379;BME280;16362;47.202;15.258;2023-02-28T02:58:18;96937.38;;;-1.59;85.45
29379;BME280;16362;47.202;15.258;2023-02-28T03:00:50;96933.97;;;-1.61;86.37
29379;BME280;16362;47.202;15.258;2023-02-28T03:03:20;96936.50;;;-1.60;87.06
29379;BME280;16362;47.202;15.258;2023-02-28T03:09:53;96932.97;;;-1.59;87.54
29379;BME280;16362;47.202;15.258;2023-02-28T03:12:21;96933.13;;;-1.62;87.71
29379;BME280;16362;47.202;15.258;2023-02-28T03:14:56;96935.84;;;-1.63;87.99
29379;BME280;16362;47.202;15.258;2023-02-28T03:20:13;96940.91;;;-1.60;88.13
29379;BME280;16362;47.202;15.258;2023-02-28T03:26:22;96944.13;;;-1.55;87.18
29379;BME280;16362;47.202;15.258;2023-02-28T03:29:31;96941.72;;;-1.60;87.81
29379;BME280;16362;47.202;15.258;2023-02-28T03:32:05;96939.06;;;-1.58;88.18
29379;BME280;16362;47.202;15.258;2023-02-28T03:34:41;96936.50;;;-1.60;88.10
29379;BME280;16362;47.202;15.258;2023-02-28T03:37:13;96937.19;;;-1.56;88.29
29379;BME280;16362;47.202;15.258;2023-02-28T03:39:49;96936.34;;;-1.57;88.09
29379;BME280;16362;47.202;15.258;2023-02-28T03:42:22;96939.81;;;-1.56;88.01
29379;BME280;16362;47.202;15.258;2023-02-28T03:45:08;96932.03;;;-1.58;88.10
29379;BME280;16362;47.202;15.258;2023-02-28T03:48:15;96933.81;;;-1.58;88.33
29379;BME280;16362;47.202;15.258;2023-02-28T03:50:41;96934.66;;;-1.58;88.53
29379;BME280;16362;47.202;15.258;2023-02-28T03:53:11;96933.88;;;-1.60;88.64
29379;BME280;16362;47.202;15.258;2023-02-28T03:55:49;96938.03;;;-1.56;88.79
29379;BME280;16362;47.202;15.258;2023-02-28T03:59:10;96945.81;;;-1.54;88.46
29379;BME280;16362;47.202;15.258;2023-02-28T04:01:25;96940.06;;;-1.61;88.83
29379;BME280;16362;47.202;15.258;2023-02-28T04:03:55;96937.44;;;-1.61;88.30
29379;BME280;16362;47.202;15.258;2023-02-28T04:06:22;96947.84;;;-1.59;88.75
29379;BME280;16362;47.202;15.258;2023-02-28T04:08:50;96944.28;;;-1.58;88.39
29379;BME280;16362;47.202;15.258;2023-02-28T04:12:56;96948.50;;;-1.56;88.79
29379;BME280;16362;47.202;15.258;2023-02-28T04:15:23;96949.97;;;-1.50;89.11
29379;BME280;16362;47.202;15.258;2023-02-28T04:17:51;96955.28;;;-1.51;88.77
29379;BME280;16362;47.202;15.258;2023-02-28T04:20:25;96956.28;;;-1.54;88.93
29379;BME280;16362;47.202;15.258;2023-02-28T04:22:52;96948.50;;;-1.56;89.22
29379;BME280;16362;47.202;15.258;2023-02-28T04:25:19;96959.13;;;-1.59;89.04
29379;BME280;16362;47.202;15.258;2023-02-28T04:27:45;96960.41;;;-1.66;89.85
29379;BME280;16362;47.202;15.258;2023-02-28T04:30:12;96954.38;;;-1.68;90.29
29379;BME280;16362;47.202;15.258;2023-02-28T04:32:39;96956.09;;;-1.67;90.18
29379;BME280;16362;47.202;15.258;2023-02-28T04:35:06;96966.47;;;-1.65;90.14
29379;BME280;16362;47.202;15.258;2023-02-28T04:39:03;96967.06;;;-1.60;90.66
29379;BME280;16362;47.202;15.258;2023-02-28T04:41:30;96962.53;;;-1.57;89.98
29379;BME280;16362;47.202;15.258;2023-02-28T04:43:58;96968.50;;;-1.55;89.58
29379;BME280;16362;47.202;15.258;2023-02-28T04:46:37;96971.22;;;-1.56;89.51
29379;BME280;16362;47.202;15.258;2023-02-28T04:49:04;96979.06;;;-1.56;89.76
29379;BME280;16362;47.202;15.258;2023-02-28T04:51:30;96973.00;;;-1.57;89.31
29379;BME280;16362;47.202;15.258;2023-02-28T04:53:57;96970.69;;;-1.63;88.77
29379;BME280;16362;47.202;15.258;2023-02-28T04:56:24;96978.72;;;-1.66;89.12
29379;BME280;16362;47.202;15.258;2023-02-28T04:58:50;96973.66;;;-1.69;89.42
29379;BME280;16362;47.202;15.258;2023-02-28T05:01:26;96968.44;;;-1.69;89.80
29379;BME280;16362;47.202;15.258;2023-02-28T05:03:55;96976.09;;;-1.66;90.09
29379;BME280;16362;47.202;15.258;2023-02-28T05:06:24;96981.75;;;-1.74;90.42
29379;BME280;16362;47.202;15.258;2023-02-28T05:08:51;96979.22;;;-1.75;90.78
29379;BME280;16362;47.202;15.258;2023-02-28T05:13:45;96973.06;;;-1.74;90.99
29379;BME280;16362;47.202;15.258;2023-02-28T05:16:13;96982.44;;;-1.70;91.11
29379;BME280;16362;47.202;15.258;2023-02-28T05:18:40;96972.56;;;-1.65;91.55
29379;BME280;16362;47.202;15.258;2023-02-28T05:21:23;96966.25;;;-1.61;91.33
29379;BME280;16362;47.202;15.258;2023-02-28T05:23:51;96974.94;;;-1.60;89.88
29379;BME280;16362;47.202;15.258;2023-02-28T05:26:19;96969.59;;;-1.59;88.44
29379;BME280;16362;47.202;15.258;2023-02-28T05:28:46;96966.25;;;-1.61;87.85
29379;BME280;16362;47.202;15.258;2023-02-28T05:31:13;96969.09;;;-1.65;88.15
29379;BME280;16362;47.202;15.258;2023-02-28T05:33:40;96970.09;;;-1.68;89.10
29379;BME280;16362;47.202;15.258;2023-02-28T05:36:07;96965.72;;;-1.67;89.63
29379;BME280;16362;47.202;15.258;2023-02-28T05:38:34;96964.94;;;-1.70;90.03
29379;BME280;16362;47.202;15.258;2023-02-28T05:41:10;96967.72;;;-1.73;90.37
29379;BME280;16362;47.202;15.258;2023-02-28T05:43:37;96972.44;;;-1.79;91.50
29379;BME280;16362;47.202;15.258;2023-02-28T05:46:05;96977.75;;;-1.81;91.92
29379;BME280;16362;47.202;15.258;2023-02-28T05:48:34;96977.84;;;-1.82;92.68
29379;BME280;16362;47.202;15.258;2023-02-28T05:51:02;96981.38;;;-1.83;93.22
29379;BME280;16362;47.202;15.258;2023-02-28T05:53:29;96988.31;;;-1.82;93.14
29379;BME280;16362;47.202;15.258;2023-02-28T05:55:56;96990.94;;;-1.82;93.12
29379;BME280;16362;47.202;15.258;2023-02-28T05:58:24;96988.31;;;-1.82;93.46
29379;BME280;16362;47.202;15.258;2023-02-28T06:00:55;96990.06;;;-1.83;94.07
29379;BME280;16362;47.202;15.258;2023-02-28T06:03:22;96989.97;;;-1.81;93.88
29379;BME280;16362;47.202;15.258;2023-02-28T06:06:01;96992.38;;;-1.77;93.88
29379;BME280;16362;47.202;15.258;2023-02-28T06:08:27;96988.66;;;-1.73;93.10
29379;BME280;16362;47.202;15.258;2023-02-28T06:10:54;97000.34;;;-1.62;92.26
29379;BME280;16362;47.202;15.258;2023-02-28T06:13:21;97003.47;;;-1.56;91.88
29379;BME280;16362;47.202;15.258;2023-02-28T06:15:47;97006.94;;;-1.55;91.72
29379;BME280;16362;47.202;15.258;2023-02-28T06:18:14;97008.78;;;-1.57;91.95
29379;BME280;16362;47.202;15.258;2023-02-28T06:20:41;97008.97;;;-1.60;91.68
29379;BME280;16362;47.202;15.258;2023-02-28T06:24:35;97015.09;;;-1.61;91.38
29379;BME280;16362;47.202;15.258;2023-02-28T06:27:02;97018.59;;;-1.61;92.32
29379;BME280;16362;47.202;15.258;2023-02-28T06:30:46;97020.97;;;-1.56;90.74
29379;BME280;16362;47.202;15.258;2023-02-28T06:35:51;97025.41;;;-1.74;92.15
29379;BME280;16362;47.202;15.258;2023-02-28T06:38:18;97029.53;;;-1.70;91.82
29379;BME280;16362;47.202;15.258;2023-02-28T06:40:53;97028.69;;;-1.71;92.53
29379;BME280;16362;47.202;15.258;2023-02-28T06:43:19;97035.31;;;-1.63;89.94
29379;BME280;16362;47.202;15.258;2023-02-28T06:45:46;97039.66;;;-1.64;90.08
29379;BME280;16362;47.202;15.258;2023-02-28T06:48:13;97040.38;;;-1.60;88.62
29379;BME280;16362;47.202;15.258;2023-02-28T06:50:39;97031.69;;;-1.61;87.91
29379;BME280;16362;47.202;15.258;2023-02-28T06:53:06;97039.97;;;-1.53;86.63
29379;BME280;16362;47.202;15.258;2023-02-28T06:55:33;97040.91;;;-1.54;86.53
29379;BME280;16362;47.202;15.258;2023-02-28T06:57:59;97046.56;;;-1.45;85.99
29379;BME280;16362;47.202;15.258;2023-02-28T07:00:26;97046.81;;;-1.50;86.12
29379;BME280;16362;47.202;15.258;2023-02-28T07:02:53;97047.66;;;-1.49;84.04
29379;BME280;16362;47.202;15.258;2023-02-28T07:05:21;97051.06;;;-1.47;85.35
29379;BME280;16362;47.202;15.258;2023-02-28T07:07:57;97052.16;;;-1.51;85.62
29379;BME280;16362;47.202;15.258;2023-02-28T07:10:23;97046.97;;;-1.53;85.42
29379;BME280;16362;47.202;15.258;2023-02-28T07:12:50;97041.78;;;-1.37;84.70
29379;BME280;16362;47.202;15.258;2023-02-28T07:15:17;97050.81;;;-1.43;85.12
29379;BME280;16362;47.202;15.258;2023-02-28T07:18:53;97060.00;;;-1.36;83.74
29379;BME280;16362;47.202;15.258;2023-02-28T07:21:20;97048.72;;;-1.36;83.97
29379;BME280;16362;47.202;15.258;2023-02-28T07:23:48;97052.06;;;-1.34;83.67
29379;BME280;16362;47.202;15.258;2023-02-28T07:26:17;97059.19;;;-1.36;83.17
29379;BME280;16362;47.202;15.258;2023-02-28T07:28:46;97060.66;;;-1.48;83.31
29379;BME280;16362;47.202;15.258;2023-02-28T07:31:14;97062.19;;;-1.44;84.22
29379;BME280;16362;47.202;15.258;2023-02-28T07:33:42;97059.50;;;-1.42;85.02
29379;BME280;16362;47.202;15.258;2023-02-28T07:36:11;97061.19;;;-1.41;85.03
29379;BME280;16362;47.202;15.258;2023-02-28T07:38:42;97066.25;;;-1.38;85.05
29379;BME280;16362;47.202;15.258;2023-02-28T07:41:15;97066.91;;;-1.50;85.38
29379;BME280;16362;47.202;15.258;2023-02-28T07:43:42;97071.44;;;-1.37;84.49
29379;BME280;16362;47.202;15.258;2023-02-28T07:46:11;97069.31;;;-1.46;84.67
29379;BME280;16362;47.202;15.258;2023-02-28T07:48:38;97077.50;;;-1.36;84.00
29379;BME280;16362;47.202;15.258;2023-02-28T07:51:05;97075.50;;;-1.31;85.18
29379;BME280;16362;47.202;15.258;2023-02-28T07:53:32;97075.84;;;-1.21;84.58
29379;BME280;16362;47.202;15.258;2023-02-28T07:56:00;97068.69;;;-1.17;83.64
29379;BME280;16362;47.202;15.258;2023-02-28T07:58:29;97067.00;;;-1.19;84.08
29379;BME280;16362;47.202;15.258;2023-02-28T08:00:57;97065.63;;;-1.10;83.14
29379;BME280;16362;47.202;15.258;2023-02-28T08:03:24;97075.69;;;-1.18;82.65
29379;BME280;16362;47.202;15.258;2023-02-28T08:05:51;97067.41;;;-1.10;84.19
29379;BME280;16362;47.202;15.258;2023-02-28T08:08:19;97067.09;;;-1.04;82.86
29379;BME280;16362;47.202;15.258;2023-02-28T08:10:45;97069.88;;;-1.07;84.27
29379;BME280;16362;47.202;15.258;2023-02-28T08:13:12;97076.47;;;-1.16;85.27
29379;BME280;16362;47.202;15.258;2023-02-28T08:15:41;97083.13;;;-1.10;84.22
29379;BME280;16362;47.202;15.258;2023-02-28T08:18:09;97079.69;;;-1.11;82.94
29379;BME280;16362;47.202;15.258;2023-02-28T08:20:36;97074.75;;;-1.17;83.97
29379;BME280;16362;47.202;15.258;2023-02-28T08:23:03;97083.13;;;-1.10;84.52
29379;BME280;16362;47.202;15.258;2023-02-28T08:26:12;97082.38;;;-0.96;82.30
29379;BME280;16362;47.202;15.258;2023-02-28T08:28:39;97082.28;;;-0.95;83.26
29379;BME280;16362;47.202;15.258;2023-02-28T08:31:09;97083.75;;;-0.73;81.36
29379;BME280;16362;47.202;15.258;2023-02-28T08:33:49;97085.94;;;-0.81;82.48
29379;BME280;16362;47.202;15.258;2023-02-28T08:36:18;97074.78;;;-0.69;80.12
29379;BME280;16362;47.202;15.258;2023-02-28T08:38:46;97080.63;;;-0.80;80.84
29379;BME280;16362;47.202;15.258;2023-02-28T08:41:13;97087.66;;;-0.80;82.33
29379;BME280;16362;47.202;15.258;2023-02-28T08:43:40;97088.13;;;-0.90;81.64
29379;BME280;16362;47.202;15.258;2023-02-28T08:46:07;97076.06;;;-0.76;81.13
29379;BME280;16362;47.202;15.258;2023-02-28T08:48:35;97084.09;;;-0.79;81.33
29379;BME280;16362;47.202;15.258;2023-02-28T08:51:06;97088.56;;;-0.81;81.86
29379;BME280;16362;47.202;15.258;2023-02-28T08:53:36;97084.84;;;-0.77;81.61
29379;BME280;16362;47.202;15.258;2023-02-28T08:56:17;97086.03;;;-0.83;81.72
29379;BME280;16362;47.202;15.258;2023-02-28T08:58:44;97086.81;;;-0.65;80.39
29379;BME280;16362;47.202;15.258;2023-02-28T09:01:16;97086.47;;;-0.59;79.77
29379;BME280;16362;47.202;15.258;2023-02-28T09:03:44;97084.19;;;-0.65;78.49
29379;BME280;16362;47.202;15.258;2023-02-28T09:08:29;97084.25;;;-0.66;80.03
29379;BME280;16362;47.202;15.258;2023-02-28T09:10:59;97084.44;;;-0.54;78.56
29379;BME280;16362;47.202;15.258;2023-02-28T09:13:29;97091.19;;;-0.65;80.55
29379;BME280;16362;47.202;15.258;2023-02-28T09:16:00;97090.44;;;-0.68;80.50
29379;BME280;16362;47.202;15.258;2023-02-28T09:18:27;97090.19;;;-0.63;80.37
29379;BME280;16362;47.202;15.258;2023-02-28T09:20:54;97092.53;;;-0.58;79.69
29379;BME280;16362;47.202;15.258;2023-02-28T09:23:21;97089.91;;;-0.42;78.69
29379;BME280;16362;47.202;15.258;2023-02-28T09:25:53;97087.97;;;-0.39;78.81
29379;BME280;16362;47.202;15.258;2023-02-28T09:28:21;97095.00;;;-0.39;78.12
29379;BME280;16362;47.202;15.258;2023-02-28T09:30:50;97095.66;;;-0.52;78.23
29379;BME280;16362;47.202;15.258;2023-02-28T09:33:18;97086.78;;;-0.49;78.61
29379;BME280;16362;47.202;15.258;2023-02-28T09:35:49;97087.97;;;-0.55;79.36
29379;BME280;16362;47.202;15.258;2023-02-28T09:38:16;97089.16;;;-0.44;78.81
29379;BME280;16362;47.202;15.258;2023-02-28T09:40:50;97096.75;;;-0.24;77.69
29379;BME280;16362;47.202;15.258;2023-02-28T09:43:22;97094.06;;;-0.38;78.23
29379;BME280;16362;47.202;15.258;2023-02-28T09:48:44;97090.81;;;-0.27;78.59
29379;BME280;16362;47.202;15.258;2023-02-28T09:51:46;97090.22;;;-0.17;77.67
29379;BME280;16362;47.202;15.258;2023-02-28T09:54:18;97085.63;;;0.03;76.50
29379;BME280;16362;47.202;15.258;2023-02-28T09:57:39;97092.38;;;0.07;75.96
29379;BME280;16362;47.202;15.258;2023-02-28T10:04:58;97090.25;;;0.14;76.12
29379;BME280;16362;47.202;15.258;2023-02-28T10:09:10;97080.13;;;0.22;76.68
29379;BME280;16362;47.202;15.258;2023-02-28T10:11:40;97077.34;;;0.40;75.09
29379;BME280;16362;47.202;15.258;2023-02-28T10:14:12;97072.84;;;0.42;74.61
29379;BME280;16362;47.202;15.258;2023-02-28T10:16:45;97082.84;;;0.35;75.19
29379;BME280;16362;47.202;15.258;2023-02-28T10:19:40;97072.28;;;0.37;75.56
29379;BME280;16362;47.202;15.258;2023-02-28T10:22:19;97076.31;;;0.57;74.52
29379;BME280;16362;47.202;15.258;2023-02-28T10:24:49;97071.25;;;0.54;75.27
29379;BME280;16362;47.202;15.258;2023-02-28T10:27:26;97074.72;;;0.54;73.87
29379;BME280;16362;47.202;15.258;2023-02-28T10:29:56;97078.38;;;0.37;74.20
29379;BME280;16362;47.202;15.258;2023-02-28T10:35:19;97071.34;;;0.52;75.56
29379;BME280;16362;47.202;15.258;2023-02-28T10:37:54;97068.34;;;0.73;73.09
29379;BME280;16362;47.202;15.258;2023-02-28T10:45:39;97061.97;;;0.91;72.12
29379;BME280;16362;47.202;15.258;2023-02-28T10:50:52;97058.03;;;0.98;70.87
29379;BME280;16362;47.202;15.258;2023-02-28T10:53:33;97052.66;;;1.14;70.89
29379;BME280;16362;47.202;15.258;2023-02-28T10:56:22;97055.22;;;1.02;71.98
29379;BME280;16362;47.202;15.258;2023-02-28T10:58:59;97045.06;;;0.95;72.60
29379;BME280;16362;47.202;15.258;2023-02-28T11:01:44;97042.13;;;1.14;71.38
29379;BME280;16362;47.202;15.258;2023-02-28T11:07:01;97040.97;;;1.33;69.18
29379;BME280;16362;47.202;15.258;2023-02-28T11:09:34;97043.97;;;1.27;69.63
29379;BME280;16362;47.202;15.258;2023-02-28T11:12:05;97040.69;;;0.81;70.89
29379;BME280;16362;47.202;15.258;2023-02-28T11:14:41;97033.13;;;1.04;71.43
29379;BME280;16362;47.202;15.258;2023-02-28T11:17:22;97035.16;;;1.28;69.56
29379;BME280;16362;47.202;15.258;2023-02-28T11:19:53;97035.56;;;1.49;70.16
29379;BME280;16362;47.202;15.258;2023-02-28T11:22:27;97025.69;;;1.52;69.23
29379;BME280;16362;47.202;15.258;2023-02-28T11:24:57;97023.19;;;1.37;70.09
29379;BME280;16362;47.202;15.258;2023-02-28T11:36:03;97008.97;;;1.54;68.92
29379;BME280;16362;47.202;15.258;2023-02-28T11:38:35;97003.44;;;1.71;69.45
29379;BME280;16362;47.202;15.258;2023-02-28T11:41:50;96999.28;;;1.54;69.03
29379;BME280;16362;47.202;15.258;2023-02-28T11:44:11;96992.69;;;1.74;68.79
29379;BME280;16362;47.202;15.258;2023-02-28T11:47:14;96989.38;;;1.98;67.67
29379;BME280;16362;47.202;15.258;2023-02-28T11:49:55;96982.97;;;2.02;66.89
29379;BME280;16362;47.202;15.258;2023-02-28T12:00:53;96973.28;;;2.15;67.16
29379;BME280;16362;47.202;15.258;2023-02-28T12:04:37;96973.28;;;1.90;67.69
29379;BME280;16362;47.202;15.258;2023-02-28T12:06:55;96965.78;;;2.09;66.99
29379;BME280;16362;47.202;15.258;2023-02-28T12:17:55;96973.69;;;2.35;65.93
29379;BME280;16362;47.202;15.258;2023-02-28T12:29:09;96961.16;;;2.26;67.17
29379;BME280;16362;47.202;15.258;2023-02-28T12:31:41;96952.81;;;1.80;67.94
29379;BME280;16362;47.202;15.258;2023-02-28T12:34:25;96951.47;;;2.00;67.40
29379;BME280;16362;47.202;15.258;2023-02-28T12:38:47;96950.22;;;2.06;68.61
29379;BME280;16362;47.202;15.258;2023-02-28T12:41:18;96951.16;;;2.05;67.30
29379;BME280;16362;47.202;15.258;2023-02-28T12:43:52;96945.47;;;1.98;67.18
29379;BME280;16362;47.202;15.258;2023-02-28T12:46:50;96952.94;;;1.79;68.71
29379;BME280;16362;47.202;15.258;2023-02-28T12:51:56;96948.28;;;1.82;68.10
29379;BME280;16362;47.202;15.258;2023-02-28T12:57:25;96950.91;;;1.82;69.21
29379;BME280;16362;47.202;15.258;2023-02-28T13:00:03;96944.50;;;1.87;69.15
29379;BME280;16362;47.202;15.258;2023-02-28T13:09:04;96938.63;;;1.83;69.41
29379;BME280;16362;47.202;15.258;2023-02-28T13:14:42;96933.25;;;1.97;69.01
29379;BME280;16362;47.202;15.258;2023-02-28T13:19:40;96931.63;;;1.69;69.26
29379;BME280;16362;47.202;15.258;2023-02-28T13:24:48;96927.16;;;1.97;69.51
29379;BME280;16362;47.202;15.258;2023-02-28T13:29:43;96922.63;;;1.99;69.68
29379;BME280;16362;47.202;15.258;2023-02-28T13:34:38;96919.75;;;2.28;68.65
29379;BME280;16362;47.202;15.258;2023-02-28T13:39:50;96909.44;;;2.25;68.44
29379;BME280;16362;47.202;15.258;2023-02-28T13:42:32;96913.97;;;2.23;68.23
29379;BME280;16362;47.202;15.258;2023-02-28T13:50:24;96914.94;;;2.09;69.00
29379;BME280;16362;47.202;15.258;2023-02-28T13:58:55;96910.84;;;2.05;71.38
29379;BME280;16362;47.202;15.258;2023-02-28T14:06:53;96919.22;;;1.71;71.13
29379;BME280;16362;47.202;15.258;2023-02-28T14:09:57;96915.03;;;1.94;71.68
29379;BME280;16362;47.202;15.258;2023-02-28T14:15:34;96914.81;;;1.97;72.38
29379;BME280;16362;47.202;15.258;2023-02-28T14:18:13;96907.97;;;2.08;72.58
29379;BME280;16362;47.202;15.258;2023-02-28T14:23:39;96907.25;;;1.93;73.07
29379;BME280;16362;47.202;15.258;2023-02-28T14:30:42;96904.81;;;1.77;72.69
29379;BME280;16362;47.202;15.258;2023-02-28T14:38:22;96899.66;;;1.75;74.19
29379;BME280;16362;47.202;15.258;2023-02-28T14:41:06;96901.03;;;1.68;74.78
29379;BME280;16362;47.202;15.258;2023-02-28T14:43:51;96901.34;;;1.76;73.85
29379;BME280;16362;47.202;15.258;2023-02-28T14:46:19;96899.56;;;1.90;73.43
29379;BME280;16362;47.202;15.258;2023-02-28T14:48:48;96901.25;;;1.78;74.04
29379;BME280;16362;47.202;15.258;2023-02-28T14:51:23;96897.03;;;1.75;73.39
29379;BME280;16362;47.202;15.258;2023-02-28T14:53:56;96902.19;;;1.77;74.61
29379;BME280;16362;47.202;15.258;2023-02-28T14:56:30;96898.09;;;1.85;73.73
29379;BME280;16362;47.202;15.258;2023-02-28T14:58:59;96900.72;;;1.85;73.07
29379;BME280;16362;47.202;15.258;2023-02-28T15:01:26;96901.44;;;1.88;72.52
29379;BME280;16362;47.202;15.258;2023-02-28T15:04:01;96898.06;;;1.73;73.73
29379;BME280;16362;47.202;15.258;2023-02-28T15:06:29;96905.25;;;1.71;73.54
29379;BME280;16362;47.202;15.258;2023-02-28T15:10:18;96901.09;;;1.54;74.49
29379;BME280;16362;47.202;15.258;2023-02-28T15:15:17;96904.13;;;1.47;75.01
29379;BME280;16362;47.202;15.258;2023-02-28T15:17:45;96900.00;;;1.43;75.47
29379;BME280;16362;47.202;15.258;2023-02-28T15:20:14;96904.56;;;1.41;76.20
29379;BME280;16362;47.202;15.258;2023-02-28T15:22:42;96903.69;;;1.41;77.03
29379;BME280;16362;47.202;15.258;2023-02-28T15:25:20;96902.31;;;1.35;77.97
29379;BME280;16362;47.202;15.258;2023-02-28T15:27:51;96902.53;;;1.32;78.33
29379;BME280;16362;47.202;15.258;2023-02-28T15:30:25;96901.78;;;1.30;78.17
29379;BME280;16362;47.202;15.258;2023-02-28T15:35:39;96908.94;;;1.28;79.18
29379;BME280;16362;47.202;15.258;2023-02-28T15:38:24;96915.34;;;1.24;79.62
29379;BME280;16362;47.202;15.258;2023-02-28T15:40:52;96908.88;;;1.15;79.82
29379;BME280;16362;47.202;15.258;2023-02-28T15:43:33;96912.13;;;1.06;80.15
29379;BME280;16362;47.202;15.258;2023-02-28T15:46:11;96903.25;;;0.94;80.82
29379;BME280;16362;47.202;15.258;2023-02-28T15:48:45;96918.47;;;0.89;80.37
29379;BME280;16362;47.202;15.258;2023-02-28T15:52:16;96910.34;;;0.79;80.83
29379;BME280;16362;47.202;15.258;2023-02-28T15:54:44;96915.88;;;0.74;81.54
29379;BME280;16362;47.202;15.258;2023-02-28T15:57:24;96914.22;;;0.73;81.42
29379;BME280;16362;47.202;15.258;2023-02-28T16:00:02;96916.06;;;0.71;82.48
29379;BME280;16362;47.202;15.258;2023-02-28T16:02:36;96921.31;;;0.71;83.10
29379;BME280;16362;47.202;15.258;2023-02-28T16:07:46;96925.09;;;0.67;82.71
29379;BME280;16362;47.202;15.258;2023-02-28T16:10:15;96923.59;;;0.63;83.25
29379;BME280;16362;47.202;15.258;2023-02-28T16:12:42;96927.16;;;0.62;83.60
29379;BME280;16362;47.202;15.258;2023-02-28T16:15:19;96923.59;;;0.63;83.52
29379;BME280;16362;47.202;15.258;2023-02-28T16:19:31;96930.09;;;0.57;83.32
29379;BME280;16362;47.202;15.258;2023-02-28T16:22:00;96923.13;;;0.56;83.94
29379;BME280;16362;47.202;15.258;2023-02-28T16:24:27;96926.69;;;0.55;84.25